createdAt,value
2017-10-18T00:01:42.862Z,94.70
2017-10-18T00:04:45.917Z,94.60
2017-10-18T00:07:47.912Z,94.60
2017-10-18T00:10:51.047Z,94.90
2017-10-18T00:13:53.142Z,94.70
2017-10-18T00:16:55.930Z,94.60
2017-10-18T00:19:58.625Z,94.60
2017-10-18T00:23:00.573Z,94.60
2017-10-18T00:26:02.631Z,94.60
2017-10-18T00:29:05.497Z,94.60
2017-10-18T00:32:07.437Z,94.60
2017-10-18T00:35:09.824Z,94.60
2017-10-18T00:38:11.797Z,94.60
2017-10-18T00:41:13.761Z,94.60
2017-10-18T00:44:16.462Z,94.60
2017-10-18T00:47:19.246Z,94.60
2017-10-18T00:50:21.951Z,94.60
2017-10-18T00:53:24.745Z,94.50
2017-10-18T00:56:26.839Z,94.50
2017-10-18T00:59:29.663Z,94.40
2017-10-18T01:02:31.659Z,94.70
2017-10-18T01:05:34.039Z,94.40
2017-10-18T01:08:36.125Z,94.30
2017-10-18T01:11:38.203Z,94.40
2017-10-18T01:14:40.162Z,94.40
2017-10-18T01:17:43.370Z,94.50
2017-10-18T01:20:45.885Z,94.50
2017-10-18T01:23:48.712Z,94.70
2017-10-18T01:26:50.681Z,94.60
2017-10-18T01:29:52.761Z,94.70
2017-10-18T01:32:56.256Z,94.80
2017-10-18T01:35:59.585Z,94.90
2017-10-18T01:39:02.293Z,94.90
2017-10-18T01:42:05.110Z,94.90
2017-10-18T01:45:07.054Z,94.90
2017-10-18T01:48:09.370Z,95.00
2017-10-18T01:51:12.058Z,95.10
2017-10-18T01:54:15.149Z,95.10
2017-10-18T01:57:17.153Z,95.10
2017-10-18T02:00:20.245Z,95.00
2017-10-18T02:03:22.191Z,95.00
2017-10-18T02:06:24.540Z,95.00
2017-10-18T02:09:27.442Z,95.00
2017-10-18T02:12:30.200Z,95.00
2017-10-18T02:15:32.124Z,94.90
2017-10-18T02:18:35.317Z,94.90
2017-10-18T02:21:37.258Z,94.80
2017-10-18T02:24:39.606Z,94.90
2017-10-18T02:27:42.294Z,94.90
2017-10-18T02:30:44.581Z,94.90
2017-10-18T02:33:46.573Z,95.30
2017-10-18T02:36:48.518Z,95.00
2017-10-18T02:39:50.602Z,95.10
2017-10-18T02:42:52.688Z,95.60
2017-10-18T02:45:54.611Z,95.30
2017-10-18T02:48:56.577Z,95.30
2017-10-18T02:51:58.527Z,95.50
2017-10-18T02:55:01.105Z,95.40
2017-10-18T02:58:03.073Z,95.40
2017-10-18T03:01:05.158Z,95.40
2017-10-18T03:04:07.846Z,95.70
2017-10-18T03:07:10.607Z,95.70
2017-10-18T03:10:12.616Z,95.70
2017-10-18T03:13:15.041Z,95.70
2017-10-18T03:16:17.060Z,95.70
2017-10-18T03:19:19.856Z,95.80
2017-10-18T03:22:21.795Z,95.90
2017-10-18T03:25:24.623Z,95.90
2017-10-18T03:28:26.548Z,95.90
2017-10-18T03:31:28.889Z,95.90
2017-10-18T03:34:30.833Z,95.90
2017-10-18T03:37:32.809Z,95.90
2017-10-18T03:40:36.340Z,96.00
2017-10-18T03:43:38.306Z,96.00
2017-10-18T03:46:40.305Z,96.10
2017-10-18T03:49:42.313Z,96.10
2017-10-18T03:52:45.094Z,96.10
2017-10-18T03:55:47.042Z,96.10
2017-10-18T03:58:49.096Z,96.20
2017-10-18T04:01:51.471Z,96.20
2017-10-18T04:04:54.278Z,96.20
2017-10-18T04:07:56.370Z,96.20
2017-10-18T04:10:58.346Z,96.10
2017-10-18T04:14:01.148Z,96.10
2017-10-18T04:17:03.110Z,96.10
2017-10-18T04:20:05.392Z,96.20
2017-10-18T04:23:07.400Z,96.50
2017-10-18T04:26:10.495Z,96.20
2017-10-18T04:29:13.193Z,96.30
2017-10-18T04:32:15.265Z,96.20
2017-10-18T04:35:17.282Z,96.20
2017-10-18T04:38:19.338Z,96.10
2017-10-18T04:41:21.270Z,96.10
2017-10-18T04:44:23.228Z,96.10
2017-10-18T04:47:25.171Z,96.10
2017-10-18T04:50:27.141Z,96.20
2017-10-18T04:53:29.089Z,96.10
2017-10-18T04:56:31.158Z,96.10
2017-10-18T04:59:33.962Z,96.00
2017-10-18T05:02:36.380Z,96.10
2017-10-18T05:05:38.316Z,96.00
2017-10-18T05:08:40.262Z,96.00
2017-10-18T05:11:42.186Z,96.00
2017-10-18T05:14:44.486Z,96.00
2017-10-18T05:17:46.445Z,96.10
2017-10-18T05:20:48.395Z,96.10
2017-10-18T05:23:50.342Z,96.10
2017-10-18T05:26:52.698Z,96.10
2017-10-18T05:29:54.695Z,96.00
2017-10-18T05:32:57.920Z,96.00
2017-10-18T05:36:00.742Z,96.10
2017-10-18T05:39:03.088Z,96.10
2017-10-18T05:42:05.721Z,96.10
2017-10-18T05:45:07.675Z,96.10
2017-10-18T05:48:10.378Z,96.20
2017-10-18T05:51:12.679Z,96.20
2017-10-18T05:54:15.368Z,96.20
2017-10-18T05:57:17.802Z,96.20
2017-10-18T06:00:19.794Z,96.20
2017-10-18T06:03:22.142Z,96.20
2017-10-18T06:06:25.049Z,96.20
2017-10-18T06:09:28.173Z,96.30
2017-10-18T06:12:30.162Z,96.50
2017-10-18T06:15:32.237Z,96.30
2017-10-18T06:18:35.013Z,96.30
2017-10-18T06:21:36.992Z,96.20
2017-10-18T06:24:38.943Z,96.20
2017-10-18T06:27:41.850Z,95.80
2017-10-18T06:30:43.877Z,95.70
2017-10-18T06:33:45.821Z,95.70
2017-10-18T06:36:47.839Z,95.60
2017-10-18T06:39:50.647Z,95.40
2017-10-18T06:42:52.629Z,95.40
2017-10-18T06:45:54.922Z,95.30
2017-10-18T06:48:57.605Z,95.10
2017-10-18T06:51:59.883Z,95.10
2017-10-18T06:55:01.894Z,95.00
2017-10-18T06:58:04.706Z,94.70
2017-10-18T07:01:07.489Z,94.50
2017-10-18T07:04:09.610Z,94.50
2017-10-18T07:07:11.553Z,94.40
2017-10-18T07:10:13.565Z,94.30
2017-10-18T07:13:16.286Z,93.80
2017-10-18T07:16:18.335Z,93.80
2017-10-18T07:19:21.044Z,93.30
2017-10-18T07:22:23.796Z,92.80
2017-10-18T07:25:25.814Z,92.80
2017-10-18T07:28:28.122Z,92.40
2017-10-18T07:31:30.917Z,91.00
2017-10-18T07:34:33.630Z,90.70
2017-10-18T07:37:36.432Z,90.10
2017-10-18T07:40:38.826Z,90.10
2017-10-18T07:43:40.915Z,89.20
2017-10-18T07:46:42.997Z,85.20
2017-10-18T07:49:45.274Z,81.90
2017-10-18T07:52:48.129Z,79.60
2017-10-18T07:55:50.086Z,79.60
2017-10-18T07:58:52.572Z,77.00
2017-10-18T08:01:54.951Z,74.70
2017-10-18T08:04:58.042Z,74.10
2017-10-18T08:08:00.758Z,75.60
2017-10-18T08:11:02.782Z,75.50
2017-10-18T08:14:04.719Z,77.10
2017-10-18T08:17:07.510Z,79.30
2017-10-18T08:20:09.522Z,79.30
2017-10-18T08:23:11.896Z,80.40
2017-10-18T08:26:14.612Z,76.70
2017-10-18T08:29:16.672Z,76.70
2017-10-18T08:32:18.614Z,73.50
2017-10-18T08:35:20.923Z,69.70
2017-10-18T08:38:22.851Z,65.70
2017-10-18T08:41:24.862Z,62.20
2017-10-18T08:44:26.798Z,58.30
2017-10-18T08:47:29.085Z,56.20
2017-10-18T08:50:31.026Z,53.60
2017-10-18T08:53:33.374Z,50.30
2017-10-18T08:56:36.189Z,48.20
2017-10-18T08:59:38.576Z,48.20
2017-10-18T09:02:41.277Z,46.20
2017-10-18T09:05:44.392Z,45.30
2017-10-18T09:08:47.193Z,44.90
2017-10-18T09:11:50.315Z,43.80
2017-10-18T09:14:52.248Z,43.80
2017-10-18T09:17:54.856Z,43.30
2017-10-18T09:20:56.843Z,43.20
2017-10-18T09:23:59.142Z,41.40
2017-10-18T09:27:01.341Z,39.40
2017-10-18T09:30:04.140Z,37.60
2017-10-18T09:33:06.855Z,36.80
2017-10-18T09:36:09.951Z,37.10
2017-10-18T09:39:11.943Z,37.10
2017-10-18T09:42:15.033Z,36.80
2017-10-18T09:45:17.810Z,36.40
2017-10-18T09:48:20.166Z,36.40
2017-10-18T09:51:22.116Z,35.70
2017-10-18T09:54:25.226Z,35.80
2017-10-18T09:57:27.158Z,35.80
2017-10-18T10:00:29.514Z,35.40
2017-10-18T10:03:32.241Z,35.10
2017-10-18T10:06:34.604Z,35.00
2017-10-18T10:09:37.443Z,34.70
2017-10-18T10:12:40.134Z,34.70
2017-10-18T10:15:42.075Z,34.10
2017-10-18T10:18:44.195Z,34.00
2017-10-18T10:21:46.130Z,33.60
2017-10-18T10:24:48.126Z,34.10
2017-10-18T10:27:50.103Z,34.20
2017-10-18T10:30:52.418Z,33.70
2017-10-18T10:33:55.315Z,33.00
2017-10-18T10:36:58.429Z,32.70
2017-10-18T10:40:01.254Z,31.90
2017-10-18T10:43:03.329Z,31.90
2017-10-18T10:46:05.280Z,32.20
2017-10-18T10:49:07.570Z,32.70
2017-10-18T10:52:11.014Z,33.80
2017-10-18T10:55:13.759Z,33.50
2017-10-18T10:58:15.892Z,33.60
2017-10-18T11:01:19.016Z,32.00
2017-10-18T11:04:20.938Z,32.70
2017-10-18T11:07:23.098Z,32.90
2017-10-18T11:10:25.039Z,33.00
2017-10-18T11:13:27.480Z,32.10
2017-10-18T11:16:29.435Z,32.20
2017-10-18T11:19:32.240Z,33.90
2017-10-18T11:22:35.038Z,35.80
2017-10-18T11:25:37.837Z,37.00
2017-10-18T11:28:40.644Z,37.00
2017-10-18T11:31:43.859Z,37.40
2017-10-18T11:34:45.817Z,37.30
2017-10-18T11:37:47.797Z,37.20
2017-10-18T11:40:49.850Z,37.30
2017-10-18T11:43:51.869Z,37.00
2017-10-18T11:46:53.806Z,37.30
2017-10-18T11:49:56.148Z,38.40
2017-10-18T11:52:58.152Z,39.40
2017-10-18T11:56:00.210Z,39.60
2017-10-18T11:59:02.141Z,40.30
2017-10-18T12:02:04.377Z,39.70
2017-10-18T12:05:06.369Z,40.70
2017-10-18T12:08:08.784Z,41.00
2017-10-18T12:11:10.865Z,40.80
2017-10-18T12:14:13.714Z,40.70
2017-10-18T12:17:15.756Z,40.70
2017-10-18T12:20:17.850Z,40.00
2017-10-18T12:23:20.016Z,38.70
2017-10-18T12:26:23.075Z,37.10
2017-10-18T12:29:25.108Z,36.40
2017-10-18T12:32:28.039Z,34.80
2017-10-18T12:35:29.982Z,34.70
2017-10-18T12:38:32.301Z,35.20
2017-10-18T12:41:34.273Z,34.20
2017-10-18T12:44:37.409Z,35.30
2017-10-18T12:47:39.513Z,35.30
2017-10-18T12:50:41.570Z,35.90
2017-10-18T12:53:43.498Z,36.10
2017-10-18T12:56:45.823Z,36.40
2017-10-18T12:59:47.823Z,36.20
2017-10-18T13:02:51.729Z,36.60
2017-10-18T13:05:53.740Z,36.60
2017-10-18T13:08:56.208Z,36.90
2017-10-18T13:11:58.403Z,38.30
2017-10-18T13:15:01.553Z,42.80
2017-10-18T13:18:03.500Z,42.70
2017-10-18T13:21:06.299Z,43.60
2017-10-18T13:24:08.958Z,43.60
2017-10-18T13:27:11.310Z,44.70
2017-10-18T13:30:13.312Z,46.30
2017-10-18T13:33:15.300Z,47.30
2017-10-18T13:36:17.274Z,48.90
2017-10-18T13:39:19.670Z,50.00
2017-10-18T13:42:21.622Z,50.90
2017-10-18T13:45:24.754Z,53.30
2017-10-18T13:48:26.731Z,53.20
2017-10-18T13:51:28.862Z,54.70
2017-10-18T13:54:32.346Z,56.00
2017-10-18T13:57:34.638Z,55.90
2017-10-18T14:00:36.592Z,56.90
2017-10-18T14:03:38.909Z,58.30
2017-10-18T14:06:40.889Z,59.60
2017-10-18T14:09:42.856Z,60.30
2017-10-18T14:12:44.803Z,61.40
2017-10-18T14:15:47.509Z,61.90
2017-10-18T14:18:49.514Z,62.90
2017-10-18T14:21:51.496Z,63.70
2017-10-18T14:24:53.441Z,65.00
2017-10-18T14:27:55.546Z,66.30
2017-10-18T14:30:57.596Z,68.00
2017-10-18T14:34:00.063Z,68.60
2017-10-18T14:37:02.783Z,69.80
2017-10-18T14:40:05.165Z,69.80
2017-10-18T14:43:07.957Z,70.80
2017-10-18T14:46:09.940Z,70.90
2017-10-18T14:49:12.656Z,71.80
2017-10-18T14:52:15.786Z,72.30
2017-10-18T14:55:17.717Z,72.30
2017-10-18T14:58:19.726Z,73.10
2017-10-18T15:01:22.523Z,72.60
2017-10-18T15:04:26.053Z,72.10
2017-10-18T15:07:28.873Z,72.10
2017-10-18T15:10:31.006Z,71.90
2017-10-18T15:13:32.952Z,71.70
2017-10-18T15:16:35.066Z,71.60
2017-10-18T15:19:37.006Z,71.70
2017-10-18T15:22:39.842Z,72.60
2017-10-18T15:25:41.793Z,72.60
2017-10-18T15:28:43.785Z,73.50
2017-10-18T15:31:46.570Z,74.70
2017-10-18T15:34:48.871Z,74.80
2017-10-18T15:37:50.986Z,75.90
2017-10-18T15:40:53.063Z,76.50
2017-10-18T15:43:55.228Z,77.40
2017-10-18T15:46:58.041Z,79.30
2017-10-18T15:50:00.834Z,80.30
2017-10-18T15:53:04.051Z,81.00
2017-10-18T15:56:06.886Z,81.70
2017-10-18T15:59:08.985Z,81.70
2017-10-18T16:02:11.046Z,82.90
2017-10-18T16:05:12.998Z,82.80
2017-10-18T16:08:15.798Z,84.20
2017-10-18T16:11:18.546Z,85.60
2017-10-18T16:14:20.610Z,84.80
2017-10-18T16:17:23.013Z,85.60
2017-10-18T16:20:24.943Z,86.10
2017-10-18T16:23:26.926Z,86.70
2017-10-18T16:26:29.648Z,87.80
2017-10-18T16:29:32.778Z,89.10
2017-10-18T16:32:35.560Z,88.80
2017-10-18T16:35:38.663Z,89.30
2017-10-18T16:38:40.857Z,89.30
2017-10-18T16:41:43.757Z,89.90
2017-10-18T16:44:46.557Z,90.00
2017-10-18T16:47:48.582Z,90.00
2017-10-18T16:50:51.502Z,90.10
2017-10-18T16:53:53.563Z,90.30
2017-10-18T16:56:55.496Z,90.50
2017-10-18T16:59:58.512Z,90.50
2017-10-18T17:03:00.526Z,90.70
2017-10-18T17:06:03.728Z,90.70
2017-10-18T17:09:06.546Z,90.70
2017-10-18T17:12:08.621Z,90.70
2017-10-18T17:15:11.322Z,90.90
2017-10-18T17:18:14.137Z,91.00
2017-10-18T17:21:16.122Z,91.00
2017-10-18T17:24:18.204Z,91.00
2017-10-18T17:27:20.272Z,91.10
2017-10-18T17:30:23.402Z,91.30
2017-10-18T17:33:25.357Z,91.30
2017-10-18T17:36:28.459Z,91.40
2017-10-18T17:39:30.426Z,91.40
2017-10-18T17:42:32.449Z,91.50
2017-10-18T17:45:34.430Z,91.60
2017-10-18T17:48:37.486Z,91.70
2017-10-18T17:51:39.437Z,91.70
2017-10-18T17:54:41.478Z,91.80
2017-10-18T17:57:43.549Z,91.90
2017-10-18T18:00:45.923Z,91.90
2017-10-18T18:03:47.964Z,92.00
2017-10-18T18:06:51.105Z,92.20
2017-10-18T18:09:53.051Z,92.20
2017-10-18T18:12:55.030Z,92.30
2017-10-18T18:15:57.862Z,92.50
2017-10-18T18:18:59.862Z,92.50
2017-10-18T18:22:01.806Z,92.50
2017-10-18T18:25:04.957Z,92.60
2017-10-18T18:28:07.003Z,92.60
2017-10-18T18:31:10.129Z,92.60
2017-10-18T18:34:12.068Z,92.60
2017-10-18T18:37:15.529Z,92.80
2017-10-18T18:40:17.495Z,92.70
2017-10-18T18:43:20.539Z,92.80
2017-10-18T18:46:22.497Z,92.80
2017-10-18T18:49:25.596Z,92.90
2017-10-18T18:52:28.492Z,93.00
2017-10-18T18:55:30.886Z,93.00
2017-10-18T18:58:32.835Z,93.50
2017-10-18T19:01:34.832Z,93.20
2017-10-18T19:04:36.845Z,93.30
2017-10-18T19:07:39.594Z,93.30
2017-10-18T19:10:41.574Z,93.30
2017-10-18T19:13:43.873Z,93.40
2017-10-18T19:16:45.817Z,93.50
2017-10-18T19:19:48.567Z,93.50
2017-10-18T19:22:50.530Z,93.50
2017-10-18T19:25:52.571Z,93.60
2017-10-18T19:28:55.398Z,93.90
2017-10-18T19:31:57.690Z,93.60
2017-10-18T19:34:59.722Z,93.70
2017-10-18T19:38:01.753Z,93.70
2017-10-18T19:41:04.066Z,93.70
2017-10-18T19:44:06.154Z,93.80
2017-10-18T19:47:08.095Z,93.90
2017-10-18T19:50:10.901Z,94.20
2017-10-18T19:53:13.601Z,93.90
2017-10-18T19:56:16.433Z,93.90
2017-10-18T19:59:18.406Z,93.90
2017-10-18T20:02:20.831Z,93.90
2017-10-18T20:05:22.886Z,94.00
2017-10-18T20:08:24.985Z,93.90
2017-10-18T20:11:26.970Z,93.90
2017-10-18T20:14:29.334Z,93.80
2017-10-18T20:17:32.154Z,93.90
2017-10-18T20:20:35.137Z,93.80
2017-10-18T20:23:37.153Z,93.80
2017-10-18T20:26:39.576Z,93.90
2017-10-18T20:29:41.555Z,93.80
2017-10-18T20:32:43.902Z,93.80
2017-10-18T20:35:46.632Z,93.80
2017-10-18T20:38:49.400Z,93.80
2017-10-18T20:41:52.088Z,94.00
2017-10-18T20:44:54.393Z,94.10
2017-10-18T20:47:57.094Z,94.40
2017-10-18T20:51:00.023Z,94.50
2017-10-18T20:54:01.965Z,94.40
2017-10-18T20:57:04.291Z,94.50
2017-10-18T21:00:06.245Z,94.50
2017-10-18T21:03:08.543Z,94.50
2017-10-18T21:06:11.245Z,94.70
2017-10-18T21:09:14.065Z,94.80
2017-10-18T21:12:16.005Z,94.80
2017-10-18T21:15:18.060Z,94.80
2017-10-18T21:18:20.015Z,94.90
2017-10-18T21:21:22.036Z,94.90
2017-10-18T21:24:24.109Z,94.90
2017-10-18T21:27:26.268Z,94.90
2017-10-18T21:30:29.075Z,94.90
2017-10-18T21:33:31.482Z,94.90
2017-10-18T21:36:33.447Z,95.00
2017-10-18T21:39:36.533Z,95.00
2017-10-18T21:42:38.822Z,95.00
2017-10-18T21:45:41.634Z,95.00
2017-10-18T21:48:43.565Z,95.00
2017-10-18T21:51:45.770Z,95.00
2017-10-18T21:54:47.890Z,95.00
2017-10-18T21:57:50.219Z,95.10
2017-10-18T22:00:52.270Z,95.00
2017-10-18T22:03:54.229Z,95.10
2017-10-18T22:06:56.242Z,95.10
2017-10-18T22:09:59.367Z,95.00
2017-10-18T22:13:01.342Z,95.00
2017-10-18T22:16:04.454Z,95.00
2017-10-18T22:19:07.156Z,94.90
2017-10-18T22:22:09.874Z,94.90
2017-10-18T22:25:12.021Z,94.90
2017-10-18T22:28:14.172Z,94.90
2017-10-18T22:31:16.217Z,94.90
2017-10-18T22:34:19.087Z,94.90
2017-10-18T22:37:21.081Z,94.90
2017-10-18T22:40:23.084Z,94.90
2017-10-18T22:43:25.906Z,95.10
2017-10-18T22:46:28.370Z,94.80
2017-10-18T22:49:31.070Z,94.80
2017-10-18T22:52:34.170Z,94.80
2017-10-18T22:55:36.116Z,94.80
2017-10-18T22:58:38.470Z,94.80
2017-10-18T23:01:40.449Z,94.70
2017-10-18T23:04:43.516Z,95.00
2017-10-18T23:07:45.501Z,95.00
2017-10-18T23:10:48.130Z,95.00
2017-10-18T23:13:50.849Z,95.00
2017-10-18T23:16:53.209Z,95.00
2017-10-18T23:19:55.626Z,95.00
2017-10-18T23:22:58.731Z,95.10
2017-10-18T23:26:01.556Z,95.20
2017-10-18T23:29:03.913Z,95.20
2017-10-18T23:32:06.864Z,95.30
2017-10-18T23:35:08.862Z,95.30
2017-10-18T23:38:10.804Z,95.50
2017-10-18T23:41:13.670Z,95.60
2017-10-18T23:44:15.693Z,95.60
2017-10-18T23:47:18.446Z,95.70
2017-10-18T23:50:20.462Z,95.70
2017-10-18T23:53:22.625Z,95.80
2017-10-18T23:56:25.577Z,95.90
2017-10-18T23:59:27.592Z,95.90
